This is the latest recevied weather packets stored in our database for station/object YS1AHL-23. If no packets are shown the sender has not sent any weather packets the latest 10 day(s).
| Time | Temp. | Humidity | Pressure | Rain* | Wind** | Luminosity | Snow |
|---|---|---|---|---|---|---|---|
| 1777929415 | 15.56° C | 52% | 1004 hPa | 0 mm | - | - | - |
| 1777928754 | 15° C | 56% | 1004 hPa | 0 mm | - | - | - |
| 1777927553 | 15° C | 56% | 1004 hPa | 0 mm | - | - | - |
| 1777927012 | 15° C | 56% | 1004 hPa | 0 mm | - | - | - |
| 1777926952 | 15° C | 56% | 1004 hPa | 0 mm | - | - | - |
| 1777925811 | 14.44° C | 57% | 1004 hPa | 0 mm | - | - | - |
| 1777925210 | 13.89° C | 59% | 1004 hPa | 0 mm | - | - | - |
| 1777924610 | 13.89° C | 59% | 1004 hPa | 0 mm | - | - | - |
| 1777922617 | 12.78° C | 65% | 1004 hPa | 0 mm | - | - | - |
| 1777922077 | 11.67° C | 71% | 1005 hPa | 0 mm | - | - | - |
| 1777922016 | 11.67° C | 71% | 1005 hPa | 0 mm | - | - | - |
| 1777921416 | 12.22° C | 71% | 1005 hPa | 0 mm | - | - | - |
| 1777919674 | 12.78° C | 71% | 1005 hPa | 0 mm | - | - | - |
| 1777919614 | 12.78° C | 71% | 1005 hPa | 0 mm | - | - | - |
| 1777919074 | 9.44° C | 82% | 1005 hPa | 0 mm | - | - | - |
| 1777919014 | 9.44° C | 82% | 1005 hPa | 0 mm | - | - | - |
| 1777918474 | 10° C | 82% | 1005 hPa | 0 mm | - | - | - |
| 1777918413 | 10° C | 82% | 1005 hPa | 0 mm | - | - | - |
| 1777917873 | 10.56° C | 82% | 1005 hPa | 0 mm | - | - | - |
| 1777917813 | 10.56° C | 82% | 1005 hPa | 0 mm | - | - | - |
| 1777916612 | 10.56° C | 82% | 1005 hPa | 0 mm | - | - | - |
| 1777916071 | 10° C | 84% | 1005 hPa | 0 mm | - | - | - |
| 1777916011 | 10° C | 84% | 1005 hPa | 0 mm | - | - | - |
| 1777915471 | 9.44° C | 85% | 1005 hPa | 0 mm | - | - | - |
| 1777915410 | 9.44° C | 85% | 1005 hPa | 0 mm | - | - | - |
* Rain latest hour (hover to see other rain measurements)
** Current wind speed in m/s (hover to see current wind gust speed)